sensor_id;sensor_type;location;lat;lon;timestamp;P1;durP1;ratioP1;P2;durP2;ratioP2
70818;SDS011;58439;51.046;13.692;2023-01-23T00:01:32;41.60;;;17.67;;
70818;SDS011;58439;51.046;13.692;2023-01-23T00:04:00;37.65;;;17.15;;
70818;SDS011;58439;51.046;13.692;2023-01-23T00:06:30;46.45;;;17.75;;
70818;SDS011;58439;51.046;13.692;2023-01-23T00:08:57;35.80;;;16.55;;
70818;SDS011;58439;51.046;13.692;2023-01-23T00:11:25;37.20;;;17.80;;
70818;SDS011;58439;51.046;13.692;2023-01-23T00:13:55;41.25;;;18.77;;
70818;SDS011;58439;51.046;13.692;2023-01-23T00:16:25;37.47;;;15.63;;
70818;SDS011;58439;51.046;13.692;2023-01-23T00:18:55;42.58;;;17.83;;
70818;SDS011;58439;51.046;13.692;2023-01-23T00:21:24;40.92;;;17.38;;
70818;SDS011;58439;51.046;13.692;2023-01-23T00:23:54;37.22;;;16.75;;
70818;SDS011;58439;51.046;13.692;2023-01-23T00:26:25;41.72;;;17.92;;
70818;SDS011;58439;51.046;13.692;2023-01-23T00:28:58;42.47;;;17.73;;
70818;SDS011;58439;51.046;13.692;2023-01-23T00:31:25;42.22;;;18.00;;
70818;SDS011;58439;51.046;13.692;2023-01-23T00:33:57;45.92;;;18.38;;
70818;SDS011;58439;51.046;13.692;2023-01-23T00:36:33;41.47;;;17.50;;
70818;SDS011;58439;51.046;13.692;2023-01-23T00:39:04;49.88;;;18.10;;
70818;SDS011;58439;51.046;13.692;2023-01-23T00:41:42;41.80;;;19.55;;
70818;SDS011;58439;51.046;13.692;2023-01-23T00:44:11;39.15;;;17.35;;
70818;SDS011;58439;51.046;13.692;2023-01-23T00:46:39;44.47;;;17.42;;
70818;SDS011;58439;51.046;13.692;2023-01-23T00:49:06;45.50;;;17.83;;
70818;SDS011;58439;51.046;13.692;2023-01-23T00:51:36;49.53;;;18.65;;
70818;SDS011;58439;51.046;13.692;2023-01-23T00:54:06;40.13;;;18.03;;
70818;SDS011;58439;51.046;13.692;2023-01-23T00:56:33;43.83;;;18.08;;
70818;SDS011;58439;51.046;13.692;2023-01-23T00:59:03;36.60;;;14.32;;
70818;SDS011;58439;51.046;13.692;2023-01-23T01:01:30;44.13;;;17.90;;
70818;SDS011;58439;51.046;13.692;2023-01-23T01:03:58;48.72;;;19.00;;
70818;SDS011;58439;51.046;13.692;2023-01-23T01:06:27;49.35;;;19.30;;
70818;SDS011;58439;51.046;13.692;2023-01-23T01:08:56;43.40;;;17.83;;
70818;SDS011;58439;51.046;13.692;2023-01-23T01:11:25;40.63;;;18.35;;
70818;SDS011;58439;51.046;13.692;2023-01-23T01:13:57;47.33;;;19.05;;
70818;SDS011;58439;51.046;13.692;2023-01-23T01:16:27;43.67;;;18.27;;
70818;SDS011;58439;51.046;13.692;2023-01-23T01:18:57;40.58;;;16.75;;
70818;SDS011;58439;51.046;13.692;2023-01-23T01:21:24;43.22;;;17.63;;
70818;SDS011;58439;51.046;13.692;2023-01-23T01:23:52;43.35;;;18.55;;
70818;SDS011;58439;51.046;13.692;2023-01-23T01:26:19;45.30;;;18.05;;
70818;SDS011;58439;51.046;13.692;2023-01-23T01:28:49;44.45;;;18.73;;
70818;SDS011;58439;51.046;13.692;2023-01-23T01:31:16;41.95;;;17.40;;
70818;SDS011;58439;51.046;13.692;2023-01-23T01:33:43;38.83;;;16.10;;
70818;SDS011;58439;51.046;13.692;2023-01-23T01:36:17;43.65;;;18.35;;
70818;SDS011;58439;51.046;13.692;2023-01-23T01:38:47;41.95;;;16.75;;
70818;SDS011;58439;51.046;13.692;2023-01-23T01:41:14;41.72;;;18.25;;
70818;SDS011;58439;51.046;13.692;2023-01-23T01:43:42;43.75;;;17.92;;
70818;SDS011;58439;51.046;13.692;2023-01-23T01:49:01;42.78;;;18.17;;
70818;SDS011;58439;51.046;13.692;2023-01-23T01:52:07;40.22;;;17.88;;
70818;SDS011;58439;51.046;13.692;2023-01-23T01:57:23;45.28;;;18.65;;
70818;SDS011;58439;51.046;13.692;2023-01-23T02:00:06;41.55;;;17.20;;
70818;SDS011;58439;51.046;13.692;2023-01-23T02:05:20;37.53;;;17.20;;
70818;SDS011;58439;51.046;13.692;2023-01-23T02:07:55;39.65;;;17.20;;
70818;SDS011;58439;51.046;13.692;2023-01-23T02:10:36;40.80;;;16.98;;
70818;SDS011;58439;51.046;13.692;2023-01-23T02:13:18;39.03;;;17.52;;
70818;SDS011;58439;51.046;13.692;2023-01-23T02:15:55;39.30;;;16.70;;
70818;SDS011;58439;51.046;13.692;2023-01-23T02:18:25;38.92;;;15.85;;
70818;SDS011;58439;51.046;13.692;2023-01-23T02:20:55;37.00;;;16.27;;
70818;SDS011;58439;51.046;13.692;2023-01-23T02:26:39;41.08;;;16.50;;
70818;SDS011;58439;51.046;13.692;2023-01-23T02:29:10;39.78;;;15.90;;
70818;SDS011;58439;51.046;13.692;2023-01-23T02:31:45;39.90;;;17.70;;
70818;SDS011;58439;51.046;13.692;2023-01-23T02:34:13;41.83;;;17.02;;
70818;SDS011;58439;51.046;13.692;2023-01-23T02:36:43;42.08;;;17.15;;
70818;SDS011;58439;51.046;13.692;2023-01-23T02:39:14;47.17;;;18.30;;
70818;SDS011;58439;51.046;13.692;2023-01-23T02:41:49;38.15;;;16.77;;
70818;SDS011;58439;51.046;13.692;2023-01-23T02:44:21;41.60;;;17.13;;
70818;SDS011;58439;51.046;13.692;2023-01-23T02:47:03;39.15;;;17.75;;
70818;SDS011;58439;51.046;13.692;2023-01-23T02:49:39;39.58;;;16.67;;
70818;SDS011;58439;51.046;13.692;2023-01-23T02:52:09;37.03;;;16.83;;
70818;SDS011;58439;51.046;13.692;2023-01-23T02:54:36;35.95;;;16.55;;
70818;SDS011;58439;51.046;13.692;2023-01-23T02:57:05;41.95;;;17.17;;
70818;SDS011;58439;51.046;13.692;2023-01-23T02:59:32;39.35;;;16.95;;
70818;SDS011;58439;51.046;13.692;2023-01-23T03:02:22;37.97;;;16.55;;
70818;SDS011;58439;51.046;13.692;2023-01-23T03:04:52;37.17;;;15.93;;
70818;SDS011;58439;51.046;13.692;2023-01-23T03:07:19;37.03;;;16.63;;
70818;SDS011;58439;51.046;13.692;2023-01-23T03:09:46;37.15;;;16.40;;
70818;SDS011;58439;51.046;13.692;2023-01-23T03:12:14;35.58;;;16.42;;
70818;SDS011;58439;51.046;13.692;2023-01-23T03:14:41;39.22;;;16.25;;
70818;SDS011;58439;51.046;13.692;2023-01-23T03:17:09;39.50;;;16.60;;
70818;SDS011;58439;51.046;13.692;2023-01-23T03:19:37;32.45;;;14.65;;
70818;SDS011;58439;51.046;13.692;2023-01-23T03:22:04;38.95;;;16.67;;
70818;SDS011;58439;51.046;13.692;2023-01-23T03:24:32;36.85;;;16.23;;
70818;SDS011;58439;51.046;13.692;2023-01-23T03:27:02;40.03;;;16.88;;
70818;SDS011;58439;51.046;13.692;2023-01-23T03:29:36;35.63;;;16.38;;
70818;SDS011;58439;51.046;13.692;2023-01-23T03:32:21;35.55;;;15.13;;
70818;SDS011;58439;51.046;13.692;2023-01-23T03:34:53;36.72;;;16.63;;
70818;SDS011;58439;51.046;13.692;2023-01-23T03:37:21;36.13;;;16.40;;
70818;SDS011;58439;51.046;13.692;2023-01-23T03:39:49;40.85;;;16.83;;
70818;SDS011;58439;51.046;13.692;2023-01-23T03:42:36;42.25;;;16.08;;
70818;SDS011;58439;51.046;13.692;2023-01-23T03:45:05;36.55;;;15.68;;
70818;SDS011;58439;51.046;13.692;2023-01-23T03:47:34;34.53;;;15.68;;
70818;SDS011;58439;51.046;13.692;2023-01-23T03:50:05;36.50;;;16.50;;
70818;SDS011;58439;51.046;13.692;2023-01-23T03:52:36;40.30;;;16.45;;
70818;SDS011;58439;51.046;13.692;2023-01-23T03:55:06;38.65;;;16.58;;
70818;SDS011;58439;51.046;13.692;2023-01-23T03:57:35;39.22;;;16.52;;
70818;SDS011;58439;51.046;13.692;2023-01-23T04:00:22;37.38;;;15.90;;
70818;SDS011;58439;51.046;13.692;2023-01-23T04:02:58;39.90;;;16.75;;
70818;SDS011;58439;51.046;13.692;2023-01-23T04:05:26;39.40;;;15.75;;
70818;SDS011;58439;51.046;13.692;2023-01-23T04:07:53;36.47;;;16.42;;
70818;SDS011;58439;51.046;13.692;2023-01-23T04:10:22;39.35;;;17.10;;
70818;SDS011;58439;51.046;13.692;2023-01-23T04:12:54;40.30;;;16.25;;
70818;SDS011;58439;51.046;13.692;2023-01-23T04:15:21;40.75;;;16.92;;
70818;SDS011;58439;51.046;13.692;2023-01-23T04:17:51;40.00;;;17.35;;
70818;SDS011;58439;51.046;13.692;2023-01-23T04:20:21;36.75;;;17.05;;
70818;SDS011;58439;51.046;13.692;2023-01-23T04:22:50;40.22;;;17.23;;
70818;SDS011;58439;51.046;13.692;2023-01-23T04:25:17;39.53;;;16.83;;
70818;SDS011;58439;51.046;13.692;2023-01-23T04:27:46;42.40;;;17.25;;
70818;SDS011;58439;51.046;13.692;2023-01-23T04:30:13;40.80;;;18.02;;
70818;SDS011;58439;51.046;13.692;2023-01-23T04:32:40;37.95;;;16.75;;
70818;SDS011;58439;51.046;13.692;2023-01-23T04:35:07;38.88;;;17.65;;
70818;SDS011;58439;51.046;13.692;2023-01-23T04:37:37;40.97;;;16.15;;
70818;SDS011;58439;51.046;13.692;2023-01-23T04:40:05;36.17;;;16.65;;
70818;SDS011;58439;51.046;13.692;2023-01-23T04:42:42;37.88;;;17.02;;
70818;SDS011;58439;51.046;13.692;2023-01-23T04:45:26;38.80;;;15.20;;
70818;SDS011;58439;51.046;13.692;2023-01-23T04:48:32;35.20;;;15.98;;
70818;SDS011;58439;51.046;13.692;2023-01-23T04:50:59;37.78;;;16.80;;
70818;SDS011;58439;51.046;13.692;2023-01-23T04:53:27;41.28;;;17.88;;
70818;SDS011;58439;51.046;13.692;2023-01-23T04:56:00;33.20;;;15.88;;
70818;SDS011;58439;51.046;13.692;2023-01-23T04:58:28;40.55;;;17.15;;
70818;SDS011;58439;51.046;13.692;2023-01-23T05:01:04;34.15;;;15.98;;
70818;SDS011;58439;51.046;13.692;2023-01-23T05:03:34;41.53;;;17.13;;
70818;SDS011;58439;51.046;13.692;2023-01-23T05:06:02;37.40;;;16.17;;
70818;SDS011;58439;51.046;13.692;2023-01-23T05:08:30;36.75;;;16.70;;
70818;SDS011;58439;51.046;13.692;2023-01-23T05:11:10;34.70;;;16.23;;
70818;SDS011;58439;51.046;13.692;2023-01-23T05:13:37;40.72;;;16.88;;
70818;SDS011;58439;51.046;13.692;2023-01-23T05:16:05;39.08;;;16.83;;
70818;SDS011;58439;51.046;13.692;2023-01-23T05:18:50;39.65;;;16.58;;
70818;SDS011;58439;51.046;13.692;2023-01-23T05:21:17;38.10;;;17.65;;
70818;SDS011;58439;51.046;13.692;2023-01-23T05:23:44;36.38;;;16.63;;
70818;SDS011;58439;51.046;13.692;2023-01-23T05:26:12;41.65;;;17.30;;
70818;SDS011;58439;51.046;13.692;2023-01-23T05:28:39;38.00;;;17.52;;
70818;SDS011;58439;51.046;13.692;2023-01-23T05:31:10;37.00;;;16.88;;
70818;SDS011;58439;51.046;13.692;2023-01-23T05:33:42;40.13;;;17.23;;
70818;SDS011;58439;51.046;13.692;2023-01-23T05:36:13;43.38;;;18.73;;
70818;SDS011;58439;51.046;13.692;2023-01-23T05:38:45;39.78;;;18.38;;
70818;SDS011;58439;51.046;13.692;2023-01-23T05:41:22;44.85;;;18.23;;
70818;SDS011;58439;51.046;13.692;2023-01-23T05:44:13;42.67;;;17.35;;
70818;SDS011;58439;51.046;13.692;2023-01-23T05:46:52;44.08;;;17.38;;
70818;SDS011;58439;51.046;13.692;2023-01-23T05:49:20;37.80;;;17.35;;
70818;SDS011;58439;51.046;13.692;2023-01-23T05:51:49;51.67;;;19.83;;
70818;SDS011;58439;51.046;13.692;2023-01-23T05:54:17;43.67;;;17.80;;
70818;SDS011;58439;51.046;13.692;2023-01-23T05:56:47;41.28;;;17.52;;
70818;SDS011;58439;51.046;13.692;2023-01-23T05:59:37;37.10;;;17.58;;
70818;SDS011;58439;51.046;13.692;2023-01-23T06:02:26;36.50;;;16.83;;
70818;SDS011;58439;51.046;13.692;2023-01-23T06:05:25;39.80;;;16.80;;
70818;SDS011;58439;51.046;13.692;2023-01-23T06:08:00;40.10;;;17.08;;
70818;SDS011;58439;51.046;13.692;2023-01-23T06:10:28;39.50;;;17.45;;
70818;SDS011;58439;51.046;13.692;2023-01-23T06:12:56;40.47;;;17.38;;
70818;SDS011;58439;51.046;13.692;2023-01-23T06:15:23;46.35;;;18.40;;
70818;SDS011;58439;51.046;13.692;2023-01-23T06:17:56;50.78;;;18.67;;
70818;SDS011;58439;51.046;13.692;2023-01-23T06:20:26;48.13;;;17.50;;
70818;SDS011;58439;51.046;13.692;2023-01-23T06:22:58;46.80;;;19.35;;
70818;SDS011;58439;51.046;13.692;2023-01-23T06:25:26;47.33;;;19.55;;
70818;SDS011;58439;51.046;13.692;2023-01-23T06:27:58;50.67;;;19.05;;
70818;SDS011;58439;51.046;13.692;2023-01-23T06:33:02;54.42;;;18.73;;
70818;SDS011;58439;51.046;13.692;2023-01-23T06:35:39;48.92;;;18.17;;
70818;SDS011;58439;51.046;13.692;2023-01-23T06:38:07;52.92;;;19.50;;
70818;SDS011;58439;51.046;13.692;2023-01-23T06:41:44;49.22;;;20.38;;
70818;SDS011;58439;51.046;13.692;2023-01-23T06:44:18;51.88;;;20.65;;
70818;SDS011;58439;51.046;13.692;2023-01-23T06:46:49;58.63;;;21.15;;
70818;SDS011;58439;51.046;13.692;2023-01-23T06:49:21;59.17;;;23.17;;
70818;SDS011;58439;51.046;13.692;2023-01-23T06:51:54;59.58;;;23.98;;
70818;SDS011;58439;51.046;13.692;2023-01-23T06:54:26;55.47;;;21.65;;
70818;SDS011;58439;51.046;13.692;2023-01-23T06:56:59;57.05;;;22.40;;
70818;SDS011;58439;51.046;13.692;2023-01-23T06:59:27;59.47;;;21.63;;
70818;SDS011;58439;51.046;13.692;2023-01-23T07:04:41;58.33;;;22.60;;
70818;SDS011;58439;51.046;13.692;2023-01-23T07:07:10;49.25;;;20.58;;
70818;SDS011;58439;51.046;13.692;2023-01-23T07:09:39;57.83;;;21.80;;
70818;SDS011;58439;51.046;13.692;2023-01-23T07:12:13;54.33;;;20.67;;
70818;SDS011;58439;51.046;13.692;2023-01-23T07:14:40;60.75;;;23.63;;
70818;SDS011;58439;51.046;13.692;2023-01-23T07:17:11;57.40;;;21.90;;
70818;SDS011;58439;51.046;13.692;2023-01-23T07:19:39;61.20;;;22.50;;
70818;SDS011;58439;51.046;13.692;2023-01-23T07:22:10;55.67;;;22.02;;
70818;SDS011;58439;51.046;13.692;2023-01-23T07:24:37;58.72;;;23.25;;
70818;SDS011;58439;51.046;13.692;2023-01-23T07:27:05;52.95;;;21.10;;
70818;SDS011;58439;51.046;13.692;2023-01-23T07:29:33;53.85;;;21.33;;
70818;SDS011;58439;51.046;13.692;2023-01-23T07:32:00;61.63;;;22.88;;
70818;SDS011;58439;51.046;13.692;2023-01-23T07:34:27;63.50;;;22.02;;
70818;SDS011;58439;51.046;13.692;2023-01-23T07:36:55;54.42;;;22.50;;
70818;SDS011;58439;51.046;13.692;2023-01-23T07:39:22;56.65;;;20.15;;
70818;SDS011;58439;51.046;13.692;2023-01-23T07:41:49;56.63;;;22.88;;
70818;SDS011;58439;51.046;13.692;2023-01-23T07:44:18;57.33;;;22.10;;
70818;SDS011;58439;51.046;13.692;2023-01-23T07:46:47;54.20;;;21.77;;
70818;SDS011;58439;51.046;13.692;2023-01-23T07:49:15;52.05;;;21.48;;
70818;SDS011;58439;51.046;13.692;2023-01-23T07:51:42;52.83;;;21.55;;
70818;SDS011;58439;51.046;13.692;2023-01-23T07:54:09;56.25;;;22.63;;
70818;SDS011;58439;51.046;13.692;2023-01-23T07:56:38;53.40;;;22.40;;
70818;SDS011;58439;51.046;13.692;2023-01-23T07:59:05;53.25;;;21.95;;
70818;SDS011;58439;51.046;13.692;2023-01-23T08:01:32;59.40;;;22.63;;
70818;SDS011;58439;51.046;13.692;2023-01-23T08:03:59;51.25;;;21.33;;
70818;SDS011;58439;51.046;13.692;2023-01-23T08:06:26;56.75;;;22.83;;
70818;SDS011;58439;51.046;13.692;2023-01-23T08:08:53;54.40;;;22.35;;
70818;SDS011;58439;51.046;13.692;2023-01-23T08:11:20;57.60;;;20.33;;
70818;SDS011;58439;51.046;13.692;2023-01-23T08:13:49;53.05;;;21.75;;
70818;SDS011;58439;51.046;13.692;2023-01-23T08:16:16;58.60;;;22.73;;
70818;SDS011;58439;51.046;13.692;2023-01-23T08:18:43;54.13;;;21.00;;
70818;SDS011;58439;51.046;13.692;2023-01-23T08:21:11;49.47;;;20.80;;
70818;SDS011;58439;51.046;13.692;2023-01-23T08:23:38;53.00;;;22.92;;
70818;SDS011;58439;51.046;13.692;2023-01-23T08:26:07;50.28;;;20.55;;
70818;SDS011;58439;51.046;13.692;2023-01-23T08:28:36;54.70;;;20.98;;
70818;SDS011;58439;51.046;13.692;2023-01-23T08:31:05;57.45;;;21.05;;
70818;SDS011;58439;51.046;13.692;2023-01-23T08:33:34;50.80;;;21.10;;
70818;SDS011;58439;51.046;13.692;2023-01-23T08:36:03;51.72;;;21.48;;
70818;SDS011;58439;51.046;13.692;2023-01-23T08:38:36;50.85;;;19.63;;
70818;SDS011;58439;51.046;13.692;2023-01-23T08:41:04;57.30;;;21.20;;
70818;SDS011;58439;51.046;13.692;2023-01-23T08:43:31;54.10;;;21.70;;
70818;SDS011;58439;51.046;13.692;2023-01-23T08:46:00;50.40;;;20.85;;
70818;SDS011;58439;51.046;13.692;2023-01-23T08:48:28;51.13;;;20.15;;
70818;SDS011;58439;51.046;13.692;2023-01-23T08:50:59;52.88;;;21.02;;
70818;SDS011;58439;51.046;13.692;2023-01-23T08:53:33;49.47;;;21.50;;
70818;SDS011;58439;51.046;13.692;2023-01-23T08:56:09;52.50;;;21.58;;
70818;SDS011;58439;51.046;13.692;2023-01-23T08:58:47;55.00;;;21.20;;
70818;SDS011;58439;51.046;13.692;2023-01-23T09:01:18;49.50;;;20.80;;
70818;SDS011;58439;51.046;13.692;2023-01-23T09:03:49;52.08;;;21.58;;
70818;SDS011;58439;51.046;13.692;2023-01-23T09:06:18;55.35;;;21.48;;
70818;SDS011;58439;51.046;13.692;2023-01-23T09:08:47;53.80;;;21.98;;
70818;SDS011;58439;51.046;13.692;2023-01-23T09:11:15;51.03;;;21.70;;
70818;SDS011;58439;51.046;13.692;2023-01-23T09:13:44;53.30;;;22.65;;
70818;SDS011;58439;51.046;13.692;2023-01-23T09:16:12;57.00;;;21.92;;
70818;SDS011;58439;51.046;13.692;2023-01-23T09:18:40;52.35;;;20.58;;
70818;SDS011;58439;51.046;13.692;2023-01-23T09:21:08;55.40;;;21.98;;
70818;SDS011;58439;51.046;13.692;2023-01-23T09:23:42;52.15;;;22.02;;
70818;SDS011;58439;51.046;13.692;2023-01-23T09:26:10;47.63;;;21.98;;
70818;SDS011;58439;51.046;13.692;2023-01-23T09:28:40;55.47;;;22.65;;
70818;SDS011;58439;51.046;13.692;2023-01-23T09:31:12;55.75;;;22.67;;
70818;SDS011;58439;51.046;13.692;2023-01-23T09:33:40;49.53;;;22.15;;
70818;SDS011;58439;51.046;13.692;2023-01-23T09:36:08;49.72;;;20.95;;
70818;SDS011;58439;51.046;13.692;2023-01-23T09:38:39;49.22;;;20.73;;
70818;SDS011;58439;51.046;13.692;2023-01-23T09:41:07;47.60;;;20.90;;
70818;SDS011;58439;51.046;13.692;2023-01-23T09:43:55;57.97;;;22.60;;
70818;SDS011;58439;51.046;13.692;2023-01-23T09:46:49;54.35;;;22.33;;
70818;SDS011;58439;51.046;13.692;2023-01-23T09:49:26;47.35;;;20.48;;
70818;SDS011;58439;51.046;13.692;2023-01-23T09:52:11;53.95;;;21.77;;
70818;SDS011;58439;51.046;13.692;2023-01-23T09:54:57;51.05;;;21.63;;
70818;SDS011;58439;51.046;13.692;2023-01-23T09:57:38;54.97;;;21.63;;
70818;SDS011;58439;51.046;13.692;2023-01-23T10:02:50;46.92;;;17.48;;
70818;SDS011;58439;51.046;13.692;2023-01-23T10:05:25;49.53;;;20.23;;
70818;SDS011;58439;51.046;13.692;2023-01-23T10:08:20;50.95;;;20.98;;
70818;SDS011;58439;51.046;13.692;2023-01-23T10:17:18;57.00;;;21.55;;
70818;SDS011;58439;51.046;13.692;2023-01-23T10:23:21;52.15;;;19.65;;
70818;SDS011;58439;51.046;13.692;2023-01-23T10:26:25;48.15;;;19.52;;
70818;SDS011;58439;51.046;13.692;2023-01-23T10:29:09;54.78;;;21.23;;
70818;SDS011;58439;51.046;13.692;2023-01-23T10:32:12;54.73;;;22.23;;
70818;SDS011;58439;51.046;13.692;2023-01-23T10:35:04;51.95;;;20.77;;
70818;SDS011;58439;51.046;13.692;2023-01-23T10:40:18;57.75;;;23.45;;
70818;SDS011;58439;51.046;13.692;2023-01-23T10:43:14;51.88;;;22.08;;
70818;SDS011;58439;51.046;13.692;2023-01-23T10:45:46;47.80;;;20.10;;
70818;SDS011;58439;51.046;13.692;2023-01-23T10:50:58;43.45;;;19.50;;
70818;SDS011;58439;51.046;13.692;2023-01-23T10:53:26;42.72;;;19.23;;
70818;SDS011;58439;51.046;13.692;2023-01-23T10:55:54;47.45;;;21.67;;
70818;SDS011;58439;51.046;13.692;2023-01-23T10:58:27;48.10;;;22.08;;
70818;SDS011;58439;51.046;13.692;2023-01-23T11:01:03;44.83;;;20.00;;
70818;SDS011;58439;51.046;13.692;2023-01-23T11:03:49;46.60;;;19.63;;
70818;SDS011;58439;51.046;13.692;2023-01-23T11:06:17;44.92;;;19.17;;
70818;SDS011;58439;51.046;13.692;2023-01-23T11:08:54;44.13;;;21.00;;
70818;SDS011;58439;51.046;13.692;2023-01-23T11:11:29;44.85;;;19.75;;
70818;SDS011;58439;51.046;13.692;2023-01-23T11:14:06;46.03;;;20.60;;
70818;SDS011;58439;51.046;13.692;2023-01-23T11:16:42;45.15;;;20.42;;
70818;SDS011;58439;51.046;13.692;2023-01-23T11:19:18;49.83;;;21.50;;
70818;SDS011;58439;51.046;13.692;2023-01-23T11:21:49;41.55;;;20.20;;
70818;SDS011;58439;51.046;13.692;2023-01-23T11:27:14;42.00;;;19.92;;
70818;SDS011;58439;51.046;13.692;2023-01-23T11:32:48;45.35;;;19.48;;
70818;SDS011;58439;51.046;13.692;2023-01-23T11:38:41;49.13;;;20.67;;
70818;SDS011;58439;51.046;13.692;2023-01-23T11:41:19;46.60;;;20.83;;
70818;SDS011;58439;51.046;13.692;2023-01-23T11:43:55;47.00;;;20.08;;
70818;SDS011;58439;51.046;13.692;2023-01-23T11:49:23;50.75;;;21.75;;
70818;SDS011;58439;51.046;13.692;2023-01-23T11:55:49;47.10;;;20.85;;
70818;SDS011;58439;51.046;13.692;2023-01-23T12:04:33;46.90;;;20.60;;
70818;SDS011;58439;51.046;13.692;2023-01-23T12:07:58;51.63;;;20.92;;
70818;SDS011;58439;51.046;13.692;2023-01-23T12:16:38;46.13;;;20.35;;
70818;SDS011;58439;51.046;13.692;2023-01-23T12:25:23;44.88;;;20.30;;
70818;SDS011;58439;51.046;13.692;2023-01-23T12:40:13;49.70;;;21.27;;
70818;SDS011;58439;51.046;13.692;2023-01-23T12:45:27;53.03;;;22.88;;
70818;SDS011;58439;51.046;13.692;2023-01-23T12:52:13;55.63;;;23.33;;
70818;SDS011;58439;51.046;13.692;2023-01-23T12:55:31;53.28;;;22.13;;
70818;SDS011;58439;51.046;13.692;2023-01-23T12:58:27;58.08;;;23.38;;
70818;SDS011;58439;51.046;13.692;2023-01-23T13:10:32;56.67;;;23.15;;
70818;SDS011;58439;51.046;13.692;2023-01-23T13:13:50;62.08;;;24.20;;
70818;SDS011;58439;51.046;13.692;2023-01-23T13:16:17;57.78;;;23.27;;
70818;SDS011;58439;51.046;13.692;2023-01-23T13:18:56;61.90;;;25.23;;
70818;SDS011;58439;51.046;13.692;2023-01-23T13:22:01;60.45;;;24.98;;
70818;SDS011;58439;51.046;13.692;2023-01-23T13:24:59;56.88;;;22.77;;
70818;SDS011;58439;51.046;13.692;2023-01-23T13:35:53;53.27;;;23.17;;
70818;SDS011;58439;51.046;13.692;2023-01-23T13:52:31;67.63;;;28.52;;
70818;SDS011;58439;51.046;13.692;2023-01-23T13:55:39;67.72;;;26.35;;
70818;SDS011;58439;51.046;13.692;2023-01-23T13:58:42;71.45;;;26.92;;
70818;SDS011;58439;51.046;13.692;2023-01-23T14:01:24;79.57;;;27.27;;
70818;SDS011;58439;51.046;13.692;2023-01-23T14:04:30;76.03;;;28.20;;
70818;SDS011;58439;51.046;13.692;2023-01-23T14:07:33;82.97;;;30.90;;
70818;SDS011;58439;51.046;13.692;2023-01-23T14:10:37;81.88;;;30.67;;
70818;SDS011;58439;51.046;13.692;2023-01-23T14:13:27;81.28;;;28.38;;
70818;SDS011;58439;51.046;13.692;2023-01-23T14:16:10;75.47;;;27.00;;
70818;SDS011;58439;51.046;13.692;2023-01-23T14:18:57;77.80;;;27.80;;
70818;SDS011;58439;51.046;13.692;2023-01-23T14:21:45;76.90;;;27.53;;
70818;SDS011;58439;51.046;13.692;2023-01-23T14:24:28;86.03;;;30.80;;
70818;SDS011;58439;51.046;13.692;2023-01-23T14:27:27;83.70;;;26.83;;
70818;SDS011;58439;51.046;13.692;2023-01-23T14:30:18;82.15;;;28.65;;
70818;SDS011;58439;51.046;13.692;2023-01-23T14:32:50;78.38;;;27.67;;
70818;SDS011;58439;51.046;13.692;2023-01-23T14:35:22;91.38;;;30.50;;
70818;SDS011;58439;51.046;13.692;2023-01-23T14:38:03;85.03;;;30.35;;
70818;SDS011;58439;51.046;13.692;2023-01-23T14:40:34;81.45;;;30.02;;
70818;SDS011;58439;51.046;13.692;2023-01-23T14:43:19;83.88;;;30.48;;
70818;SDS011;58439;51.046;13.692;2023-01-23T14:48:39;83.70;;;30.00;;
70818;SDS011;58439;51.046;13.692;2023-01-23T14:51:15;89.28;;;31.67;;
70818;SDS011;58439;51.046;13.692;2023-01-23T14:54:02;97.88;;;33.00;;
70818;SDS011;58439;51.046;13.692;2023-01-23T14:56:37;83.90;;;26.65;;
70818;SDS011;58439;51.046;13.692;2023-01-23T14:59:08;83.75;;;30.38;;
70818;SDS011;58439;51.046;13.692;2023-01-23T15:01:54;87.28;;;30.30;;
70818;SDS011;58439;51.046;13.692;2023-01-23T15:07:00;89.53;;;31.77;;
70818;SDS011;58439;51.046;13.692;2023-01-23T15:09:35;96.35;;;30.92;;
70818;SDS011;58439;51.046;13.692;2023-01-23T15:12:14;97.20;;;31.58;;
70818;SDS011;58439;51.046;13.692;2023-01-23T15:14:43;95.05;;;33.45;;
70818;SDS011;58439;51.046;13.692;2023-01-23T15:17:12;88.63;;;31.52;;
70818;SDS011;58439;51.046;13.692;2023-01-23T15:19:51;91.00;;;31.35;;
70818;SDS011;58439;51.046;13.692;2023-01-23T15:22:25;89.85;;;32.60;;
70818;SDS011;58439;51.046;13.692;2023-01-23T15:24:55;94.03;;;32.63;;
70818;SDS011;58439;51.046;13.692;2023-01-23T15:27:24;92.82;;;31.48;;
70818;SDS011;58439;51.046;13.692;2023-01-23T15:33:04;94.20;;;30.20;;
70818;SDS011;58439;51.046;13.692;2023-01-23T15:36:00;94.32;;;31.08;;
70818;SDS011;58439;51.046;13.692;2023-01-23T15:38:33;84.07;;;31.45;;
70818;SDS011;58439;51.046;13.692;2023-01-23T15:41:07;98.93;;;30.83;;
70818;SDS011;58439;51.046;13.692;2023-01-23T15:43:36;87.90;;;31.13;;
70818;SDS011;58439;51.046;13.692;2023-01-23T15:46:03;95.63;;;31.70;;
70818;SDS011;58439;51.046;13.692;2023-01-23T15:48:30;81.63;;;27.08;;
70818;SDS011;58439;51.046;13.692;2023-01-23T15:50:58;98.55;;;32.42;;
70818;SDS011;58439;51.046;13.692;2023-01-23T15:53:25;90.60;;;31.90;;
70818;SDS011;58439;51.046;13.692;2023-01-23T15:55:53;93.18;;;33.45;;
70818;SDS011;58439;51.046;13.692;2023-01-23T15:58:20;80.63;;;30.25;;
70818;SDS011;58439;51.046;13.692;2023-01-23T16:00:47;93.20;;;31.10;;
70818;SDS011;58439;51.046;13.692;2023-01-23T16:03:14;100.97;;;32.60;;
70818;SDS011;58439;51.046;13.692;2023-01-23T16:05:44;85.35;;;30.50;;
70818;SDS011;58439;51.046;13.692;2023-01-23T16:08:17;99.57;;;32.65;;
70818;SDS011;58439;51.046;13.692;2023-01-23T16:10:48;90.55;;;31.02;;
70818;SDS011;58439;51.046;13.692;2023-01-23T16:13:15;105.00;;;34.42;;
70818;SDS011;58439;51.046;13.692;2023-01-23T16:15:43;89.00;;;28.95;;
70818;SDS011;58439;51.046;13.692;2023-01-23T16:18:10;95.15;;;29.35;;
70818;SDS011;58439;51.046;13.692;2023-01-23T16:20:38;96.07;;;31.48;;
70818;SDS011;58439;51.046;13.692;2023-01-23T16:23:20;101.75;;;32.05;;
70818;SDS011;58439;51.046;13.692;2023-01-23T16:26:19;83.47;;;27.47;;
70818;SDS011;58439;51.046;13.692;2023-01-23T16:28:50;101.85;;;34.15;;
70818;SDS011;58439;51.046;13.692;2023-01-23T16:31:22;92.85;;;30.45;;
70818;SDS011;58439;51.046;13.692;2023-01-23T16:33:49;100.40;;;30.60;;
70818;SDS011;58439;51.046;13.692;2023-01-23T16:36:17;95.90;;;32.13;;
70818;SDS011;58439;51.046;13.692;2023-01-23T16:38:49;91.50;;;29.70;;
70818;SDS011;58439;51.046;13.692;2023-01-23T16:41:21;88.55;;;30.27;;
70818;SDS011;58439;51.046;13.692;2023-01-23T16:43:49;89.65;;;31.33;;
70818;SDS011;58439;51.046;13.692;2023-01-23T16:46:16;93.78;;;30.00;;
70818;SDS011;58439;51.046;13.692;2023-01-23T16:48:46;95.47;;;34.30;;
70818;SDS011;58439;51.046;13.692;2023-01-23T16:51:17;90.45;;;31.15;;
70818;SDS011;58439;51.046;13.692;2023-01-23T16:53:51;97.28;;;33.67;;
70818;SDS011;58439;51.046;13.692;2023-01-23T16:56:27;91.75;;;31.13;;